Observation data for Spur on 07/11/2018      Previous  Date       Current Mesonet Observations  Soil Data  Daily Summary Page  Observations in Plain Language
KSP1 110505Z 13003KT 24/16 A3009 RMK A01 T02430162  RH  064%=      5-min Rain = 0
KSP1 110510Z 12003KT 24/16 A3009 RMK A01 T02430163  RH  064%=      5-min Rain = 0
KSP1 110515Z 12002KT 24/16 A3009 RMK A01 T02420164  RH  065%=      5-min Rain = 0
KSP1 110520Z 12002KT 24/17 A3009 RMK A01 T02410165  RH  066%=      5-min Rain = 0
KSP1 110525Z 10003KT 24/17 A3009 RMK A01 T02400166  RH  066%=      5-min Rain = 0
KSP1 110530Z 08003KT 24/17 A3009 RMK A01 T02410168  RH  067%=      5-min Rain = 0
KSP1 110535Z 04003KT 24/17 A301 RMK A01 T02400172  RH  069%=      5-min Rain = 0
KSP1 110540Z 03004KT 24/18 A301 RMK A01 T02350176  RH  073%=      5-min Rain = 0
KSP1 110545Z 04003KT 23/18 A301 RMK A01 T02310177  RH  075%=      5-min Rain = 0
KSP1 110550Z 08003KT 23/18 A301 RMK A01 T02290179  RH  077%=      5-min Rain = 0
KSP1 110555Z 12003KT 23/18 A301 RMK A01 T02300177  RH  076%=      5-min Rain = 0
KSP1 110600Z 13003KT 23/17 A301 RMK A01 T02340174  RH  073%=      5-min Rain = 0
KSP1 110605Z 13003KT 24/17 A301 RMK A01 T02360173  RH  071%=      5-min Rain = 0
KSP1 110610Z 13002KT 24/17 A301 RMK A01 T02370172  RH  070%=      5-min Rain = 0
KSP1 110615Z 12002KT 24/17 A301 RMK A01 T02370171  RH  070%=      5-min Rain = 0
KSP1 110620Z 12001KT 24/17 A301 RMK A01 T02360171  RH  070%=      5-min Rain = 0
KSP1 110625Z 12002KT 24/17 A301 RMK A01 T02360172  RH  071%=      5-min Rain = 0
KSP1 110630Z 14002KT 24/17 A301 RMK A01 T02360172  RH  071%=      5-min Rain = 0
KSP1 110635Z 14002KT 24/17 A301 RMK A01 T02350172  RH  071%=      5-min Rain = 0
KSP1 110640Z 14002KT 23/17 A301 RMK A01 T02330172  RH  072%=      5-min Rain = 0
KSP1 110645Z 14003KT 23/17 A301 RMK A01 T02310172  RH  073%=      5-min Rain = 0
KSP1 110650Z 15003KT 23/17 A301 RMK A01 T02310172  RH  073%=      5-min Rain = 0
KSP1 110655Z 14002KT 23/17 A301 RMK A01 T02300172  RH  074%=      5-min Rain = 0
KSP1 110700Z 14003KT 23/17 A3009 RMK A01 T02290173  RH  074%=      5-min Rain = 0
KSP1 110705Z 13003KT 23/17 A3009 RMK A01 T02290173  RH  075%=      5-min Rain = 0
KSP1 110710Z 15002KT 23/17 A3009 RMK A01 T02290174  RH  075%=      5-min Rain = 0
KSP1 110715Z 13002KT 23/17 A3009 RMK A01 T02280174  RH  075%=      5-min Rain = 0
KSP1 110720Z 14002KT 23/17 A3009 RMK A01 T02270174  RH  076%=      5-min Rain = 0
KSP1 110725Z 14002KT 23/17 A3009 RMK A01 T02260174  RH  076%=      5-min Rain = 0
KSP1 110730Z 14002KT 23/17 A3009 RMK A01 T02250174  RH  077%=      5-min Rain = 0
KSP1 110735Z 17002KT 22/18 A3009 RMK A01 T02240175  RH  077%=      5-min Rain = 0
KSP1 110740Z 17002KT 22/18 A3009 RMK A01 T02230175  RH  078%=      5-min Rain = 0
KSP1 110745Z 16000KT 22/18 A3009 RMK A01 T02220176  RH  079%=      5-min Rain = 0
KSP1 110750Z 00000KT 22/18 A3009 RMK A01 T02190177  RH  081%=      5-min Rain = 0
KSP1 110755Z 26001KT 21/18 A3009 RMK A01 T02140178  RH  084%=      5-min Rain = 0
KSP1 110800Z 29001KT 21/18 A3009 RMK A01 T02120179  RH  086%=      5-min Rain = 0
KSP1 110805Z 31002KT 21/18 A3009 RMK A01 T02100181  RH  088%=      5-min Rain = 0
KSP1 110810Z 32002KT 21/18 A3009 RMK A01 T02090181  RH  088%=      5-min Rain = 0
KSP1 110815Z 32001KT 21/18 A3009 RMK A01 T02090182  RH  089%=      5-min Rain = 0
KSP1 110820Z 32001KT 21/18 A3009 RMK A01 T02090181  RH  089%=      5-min Rain = 0
KSP1 110825Z 32001KT 21/18 A3009 RMK A01 T02080182  RH  089%=      5-min Rain = 0
KSP1 110830Z 32001KT 21/18 A3009 RMK A01 T02080182  RH  090%=      5-min Rain = 0
KSP1 110835Z 33002KT 21/18 A3009 RMK A01 T02080182  RH  090%=      5-min Rain = 0
KSP1 110840Z 33002KT 21/18 A3009 RMK A01 T02080182  RH  090%=      5-min Rain = 0
KSP1 110845Z 33002KT 21/18 A3009 RMK A01 T02070183  RH  090%=      5-min Rain = 0
KSP1 110850Z 33003KT 21/18 A3009 RMK A01 T02070182  RH  091%=      5-min Rain = 0
KSP1 110855Z 32003KT 21/18 A3009 RMK A01 T02070183  RH  091%=      5-min Rain = 0
KSP1 110900Z 31003KT 21/18 A3009 RMK A01 T02070183  RH  091%=      5-min Rain = 0
KSP1 110905Z 31003KT 21/18 A3009 RMK A01 T02060183  RH  091%=      5-min Rain = 0
KSP1 110910Z 32003KT 21/18 A3009 RMK A01 T02060183  RH  091%=      5-min Rain = 0
KSP1 110915Z 32003KT 21/18 A3009 RMK A01 T02060183  RH  092%=      5-min Rain = 0
KSP1 110920Z 33003KT 21/18 A3009 RMK A01 T02060184  RH  092%=      5-min Rain = 0
KSP1 110925Z 34004KT 21/19 A3009 RMK A01 T02070185  RH  092%=      5-min Rain = 0
KSP1 110930Z 34003KT 21/19 A3009 RMK A01 T02070186  RH  092%=      5-min Rain = 0
KSP1 110935Z 33003KT 21/19 A3009 RMK A01 T02070186  RH  092%=      5-min Rain = 0
KSP1 110940Z 33002KT 21/19 A3009 RMK A01 T02080186  RH  093%=      5-min Rain = 0
KSP1 110945Z 33002KT 21/19 A3009 RMK A01 T02080187  RH  093%=      5-min Rain = 0
KSP1 110950Z 34002KT 21/19 A3009 RMK A01 T02080187  RH  093%=      5-min Rain = 0
KSP1 110955Z 35002KT 21/19 A3009 RMK A01 T02080188  RH  093%=      5-min Rain = 0
KSP1 111000Z 35002KT 21/19 A3009 RMK A01 T02090188  RH  093%=      5-min Rain = 0
KSP1 111005Z 33002KT 21/19 A3009 RMK A01 T02080188  RH  093%=      5-min Rain = 0
KSP1 111010Z 31002KT 21/19 A3009 RMK A01 T02080188  RH  093%=      5-min Rain = 0
KSP1 111015Z 30003KT 21/19 A3008 RMK A01 T02080188  RH  093%=      5-min Rain = 0
KSP1 111020Z 30003KT 21/19 A3008 RMK A01 T02080187  RH  093%=      5-min Rain = 0
KSP1 111025Z 30003KT 21/19 A3008 RMK A01 T02070186  RH  093%=      5-min Rain = 0
KSP1 111030Z 29002KT 21/19 A3008 RMK A01 T02060185  RH  093%=      5-min Rain = 0
KSP1 111035Z 28002KT 21/18 A3008 RMK A01 T02050184  RH  093%=      5-min Rain = 0
KSP1 111040Z 28003KT 21/18 A3008 RMK A01 T02050184  RH  093%=      5-min Rain = 0
KSP1 111045Z 29003KT 21/19 A3008 RMK A01 T02060185  RH  093%=      5-min Rain = 0
KSP1 111050Z 30003KT 21/19 A3008 RMK A01 T02060185  RH  093%=      5-min Rain = 0
KSP1 111055Z 30003KT 21/19 A3008 RMK A01 T02060185  RH  092%=      5-min Rain = 0
KSP1 111100Z 31002KT 21/18 A3008 RMK A01 T02060184  RH  092%=      5-min Rain = 0
KSP1 111105Z 32002KT 21/18 A3008 RMK A01 T02050184  RH  092%=      5-min Rain = 0
KSP1 111110Z 30001KT 21/18 A3008 RMK A01 T02050183  RH  092%=      5-min Rain = 0
KSP1 111115Z 29002KT 20/18 A3008 RMK A01 T02040182  RH  092%=      5-min Rain = 0
KSP1 111120Z 28002KT 20/18 A3008 RMK A01 T02030182  RH  092%=      5-min Rain = 0
KSP1 111125Z 27002KT 20/18 A3008 RMK A01 T02030182  RH  093%=      5-min Rain = 0
KSP1 111130Z 27002KT 20/18 A3009 RMK A01 T02030182  RH  093%=      5-min Rain = 0
KSP1 111135Z 27002KT 20/18 A3009 RMK A01 T02030182  RH  093%=      5-min Rain = 0
KSP1 111140Z 25001KT 20/18 A3009 RMK A01 T02030182  RH  093%=      5-min Rain = 0
KSP1 111145Z 25001KT 20/18 A3009 RMK A01 T02020181  RH  093%=      5-min Rain = 0
KSP1 111150Z 25001KT 20/18 A3009 RMK A01 T02020181  RH  093%=      5-min Rain = 0
KSP1 111155Z 24001KT 20/18 A3009 RMK A01 T02020181  RH  093%=      5-min Rain = 0
KSP1 111200Z 24002KT 20/18 A3009 RMK A01 T02010181  RH  093%=      5-min Rain = 0
KSP1 111205Z 25001KT 20/18 A301 RMK A01 T02030182  RH  093%=      5-min Rain = 0
KSP1 111210Z 27001KT 20/18 A301 RMK A01 T02040183  RH  092%=      5-min Rain = 0
KSP1 111215Z 29002KT 21/18 A301 RMK A01 T02050183  RH  092%=      5-min Rain = 0
KSP1 111220Z 30002KT 21/18 A301 RMK A01 T02050183  RH  092%=      5-min Rain = 0
KSP1 111225Z 29002KT 21/19 A301 RMK A01 T02070185  RH  092%=      5-min Rain = 0
KSP1 111230Z 29003KT 21/19 A301 RMK A01 T02090186  RH  092%=      5-min Rain = 0
KSP1 111235Z 30003KT 21/19 A301 RMK A01 T02110187  RH  091%=      5-min Rain = 0
KSP1 111240Z 30003KT 21/19 A301 RMK A01 T02130188  RH  090%=      5-min Rain = 0
KSP1 111245Z 30004KT 21/19 A301 RMK A01 T02140188  RH  090%=      5-min Rain = 0
KSP1 111250Z 31003KT 22/19 A301 RMK A01 T02160189  RH  090%=      5-min Rain = 0
KSP1 111255Z 31003KT 22/19 A301 RMK A01 T02180191  RH  089%=      5-min Rain = 0
KSP1 111300Z 31002KT 22/19 A301 RMK A01 T02190191  RH  088%=      5-min Rain = 0
KSP1 111305Z 32002KT 22/19 A301 RMK A01 T02210191  RH  088%=      5-min Rain = 0
KSP1 111310Z 31002KT 22/19 A301 RMK A01 T02230192  RH  087%=      5-min Rain = 0
KSP1 111315Z 33001KT 23/19 A301 RMK A01 T02270194  RH  087%=      5-min Rain = 0
KSP1 111320Z 27000KT 23/20 A3011 RMK A01 T02310196  RH  085%=      5-min Rain = 0
KSP1 111325Z 24000KT 23/19 A3011 RMK A01 T02330194  RH  083%=      5-min Rain = 0
KSP1 111330Z 24000KT 24/20 A3011 RMK A01 T02370195  RH  082%=      5-min Rain = 0
KSP1 111335Z 21001KT 24/20 A3011 RMK A01 T02420195  RH  079%=      5-min Rain = 0
KSP1 111340Z 23002KT 24/19 A3012 RMK A01 T02430192  RH  077%=      5-min Rain = 0
KSP1 111345Z 24002KT 25/19 A3012 RMK A01 T02450193  RH  077%=      5-min Rain = 0
KSP1 111350Z 24004KT 25/18 A3012 RMK A01 T02470184  RH  072%=      5-min Rain = 0
KSP1 111355Z 23003KT 25/18 A3012 RMK A01 T02490182  RH  070%=      5-min Rain = 0
KSP1 111400Z 24003KT 25/18 A3012 RMK A01 T02520183  RH  069%=      5-min Rain = 0
KSP1 111405Z 24004KT 26/18 A3012 RMK A01 T02560176  RH  065%=      5-min Rain = 0
KSP1 111410Z 25005G11KT 26/17 A3012 RMK A01 T02580172  RH  062%=      5-min Rain = 0
KSP1 111415Z 24005KT 26/17 A3012 RMK A01 T02600170  RH  060%=      5-min Rain = 0
KSP1 111420Z 23006KT 26/17 A3012 RMK A01 T02640170  RH  059%=      5-min Rain = 0
KSP1 111425Z 23008KT 27/17 A3013 RMK A01 T02650168  RH  058%=      5-min Rain = 0
KSP1 111430Z 23008KT 26/17 A3013 RMK A01 T02640168  RH  058%=      5-min Rain = 0
KSP1 111435Z 23008KT 26/17 A3013 RMK A01 T02640168  RH  058%=      5-min Rain = 0
KSP1 111440Z 22008G13KT 27/17 A3013 RMK A01 T02670170  RH  058%=      5-min Rain = 0
KSP1 111445Z 24006G11KT 27/17 A3013 RMK A01 T02700170  RH  057%=      5-min Rain = 0
KSP1 111450Z 24008KT 27/17 A3013 RMK A01 T02720171  RH  057%=      5-min Rain = 0
KSP1 111455Z 23006KT 27/17 A3013 RMK A01 T02720172  RH  057%=      5-min Rain = 0
KSP1 111500Z 22007KT 27/17 A3012 RMK A01 T02740169  RH  055%=      5-min Rain = 0
KSP1 111505Z 22006KT 28/17 A3012 RMK A01 T02750170  RH  055%=      5-min Rain = 0
KSP1 111510Z 21007KT 28/17 A3012 RMK A01 T02790170  RH  054%=      5-min Rain = 0
KSP1 111515Z 22007KT 28/17 A3012 RMK A01 T02820169  RH  053%=      5-min Rain = 0
KSP1 111520Z 21007KT 28/17 A3012 RMK A01 T02830169  RH  052%=      5-min Rain = 0
KSP1 111525Z 23008KT 29/17 A3012 RMK A01 T02870167  RH  051%=      5-min Rain = 0
KSP1 111530Z 23007KT 29/17 A3012 RMK A01 T02880166  RH  050%=      5-min Rain = 0
KSP1 111535Z 21007KT 29/16 A3012 RMK A01 T02920163  RH  048%=      5-min Rain = 0
KSP1 111540Z 22008G13KT 29/16 A3012 RMK A01 T02940164  RH  048%=      5-min Rain = 0
KSP1 111545Z 20007KT 30/16 A3012 RMK A01 T02960162  RH  047%=      5-min Rain = 0
KSP1 111550Z 20009KT 30/16 A3012 RMK A01 T02960159  RH  046%=      5-min Rain = 0
KSP1 111555Z 19008KT 30/16 A3012 RMK A01 T02970159  RH  045%=      5-min Rain = 0
KSP1 111600Z 19006KT 30/16 A3011 RMK A01 T02990161  RH  045%=      5-min Rain = 0
KSP1 111605Z 23007G12KT 30/16 A3011 RMK A01 T03030159  RH  044%=      5-min Rain = 0
KSP1 111610Z 22006KT 30/16 A3011 RMK A01 T03020157  RH  044%=      5-min Rain = 0
KSP1 111615Z 19007KT 31/16 A3011 RMK A01 T03050157  RH  043%=      5-min Rain = 0
KSP1 111620Z 21006G11KT 31/16 A3011 RMK A01 T03070155  RH  042%=      5-min Rain = 0
KSP1 111625Z 21009KT 31/15 A3011 RMK A01 T03090152  RH  040%=      5-min Rain = 0
KSP1 111630Z 20007KT 31/15 A3011 RMK A01 T03090152  RH  040%=      5-min Rain = 0
KSP1 111635Z 19008G14KT 31/15 A301 RMK A01 T03100152  RH  040%=      5-min Rain = 0
KSP1 111640Z 20007G13KT 31/15 A301 RMK A01 T03110147  RH  039%=      5-min Rain = 0
KSP1 111645Z 17005KT 31/15 A301 RMK A01 T03110152  RH  040%=      5-min Rain = 0
KSP1 111650Z 17007KT 31/15 A301 RMK A01 T03140146  RH  038%=      5-min Rain = 0
KSP1 111655Z 17007G12KT 32/14 A301 RMK A01 T03150142  RH  037%=      5-min Rain = 0
KSP1 111700Z 17007G12KT 32/14 A301 RMK A01 T03170141  RH  036%=      5-min Rain = 0
KSP1 111705Z 19008KT 32/14 A301 RMK A01 T03210143  RH  036%=      5-min Rain = 0
KSP1 111710Z 19006KT 32/14 A301 RMK A01 T03200140  RH  035%=      5-min Rain = 0
KSP1 111715Z 17007G13KT 32/14 A301 RMK A01 T03210138  RH  034%=      5-min Rain = 0
KSP1 111720Z 20007G14KT 32/14 A301 RMK A01 T03200138  RH  035%=      5-min Rain = 0
KSP1 111725Z 19007G16KT 32/14 A301 RMK A01 T03230139  RH  034%=      5-min Rain = 0
KSP1 111730Z 18009G15KT 32/13 A301 RMK A01 T03230131  RH  032%=      5-min Rain = 0
KSP1 111735Z 17010G16KT 32/13 A301 RMK A01 T03210129  RH  032%=      5-min Rain = 0
KSP1 111740Z 17010G15KT 32/13 A301 RMK A01 T03190129  RH  033%=      5-min Rain = 0
KSP1 111745Z 19010KT 32/13 A3009 RMK A01 T03240131  RH  032%=      5-min Rain = 0
KSP1 111750Z 20011G18KT 33/13 A3009 RMK A01 T03250125  RH  031%=      5-min Rain = 0
KSP1 111755Z 20010KT 33/13 A3009 RMK A01 T03250129  RH  031%=      5-min Rain = 0
KSP1 111800Z 18010G15KT 33/13 A3009 RMK A01 T03290130  RH  031%=      5-min Rain = 0
KSP1 111805Z 20008G15KT 33/13 A3008 RMK A01 T03330128  RH  030%=      5-min Rain = 0
KSP1 111810Z 20011G18KT 34/13 A3008 RMK A01 T03350130  RH  030%=      5-min Rain = 0
KSP1 111815Z 17008KT 33/13 A3008 RMK A01 T03270129  RH  031%=      5-min Rain = 0
KSP1 111820Z 17009G15KT 32/13 A3008 RMK A01 T03220127  RH  032%=      5-min Rain = 0
KSP1 111825Z 18010G18KT 33/12 A3007 RMK A01 T03280120  RH  029%=      5-min Rain = 0
KSP1 111830Z 18010G17KT 33/12 A3007 RMK A01 T03300116  RH  028%=      5-min Rain = 0
KSP1 111835Z 18008G15KT 33/12 A3007 RMK A01 T03290116  RH  028%=      5-min Rain = 0
KSP1 111840Z 18011G17KT 33/12 A3007 RMK A01 T03320117  RH  028%=      5-min Rain = 0
KSP1 111845Z 17010G16KT 33/12 A3007 RMK A01 T03320115  RH  028%=      5-min Rain = 0
KSP1 111850Z 17009G16KT 34/12 A3007 RMK A01 T03350119  RH  028%=      5-min Rain = 0
KSP1 111855Z 18012G17KT 34/11 A3006 RMK A01 T03380114  RH  027%=      5-min Rain = 0
KSP1 111900Z 16011G17KT 34/12 A3006 RMK A01 T03350123  RH  029%=      5-min Rain = 0
KSP1 111905Z 18011G18KT 33/11 A3006 RMK A01 T03330113  RH  027%=      5-min Rain = 0
KSP1 111910Z 15013G19KT 33/12 A3006 RMK A01 T03290120  RH  029%=      5-min Rain = 0
KSP1 111915Z 19010G15KT 33/12 A3006 RMK A01 T03290116  RH  028%=      5-min Rain = 0
KSP1 111920Z 18009G15KT 33/11 A3006 RMK A01 T03310114  RH  028%=      5-min Rain = 0
KSP1 111925Z 16011G18KT 33/11 A3005 RMK A01 T03290112  RH  027%=      5-min Rain = 0
KSP1 111930Z 19010G15KT 33/11 A3005 RMK A01 T03290112  RH  028%=      5-min Rain = 0
KSP1 111935Z 17010G19KT 33/11 A3005 RMK A01 T03310110  RH  027%=      5-min Rain = 0
KSP1 111940Z 16007G15KT 33/11 A3005 RMK A01 T03290110  RH  027%=      5-min Rain = 0
KSP1 111945Z 18012KT 33/11 A3005 RMK A01 T03290107  RH  027%=      5-min Rain = 0
KSP1 111950Z 18012G18KT 34/11 A3004 RMK A01 T03350109  RH  026%=      5-min Rain = 0
KSP1 111955Z 16009G18KT 34/11 A3004 RMK A01 T03370110  RH  026%=      5-min Rain = 0
KSP1 112000Z 17012G17KT 34/10 A3003 RMK A01 T03400104  RH  024%=      5-min Rain = 0
KSP1 112005Z 17010G15KT 34/10 A3003 RMK A01 T03400101  RH  024%=      5-min Rain = 0
KSP1 112010Z 16011G17KT 34/10 A3003 RMK A01 T03370101  RH  024%=      5-min Rain = 0
KSP1 112015Z 18011G17KT 34/10 A3003 RMK A01 T03370099  RH  024%=      5-min Rain = 0
KSP1 112020Z 20011G17KT 35/10 A3003 RMK A01 T03480098  RH  022%=      5-min Rain = 0
KSP1 112025Z 19013G18KT 35/09 A3003 RMK A01 T03520093  RH  021%=      5-min Rain = 0
KSP1 112030Z 16012G20KT 35/10 A3002 RMK A01 T03460095  RH  022%=      5-min Rain = 0
KSP1 112035Z 19013G19KT 35/09 A3002 RMK A01 T03480089  RH  021%=      5-min Rain = 0
KSP1 112040Z 19011G16KT 35/09 A3002 RMK A01 T03480093  RH  022%=      5-min Rain = 0
KSP1 112045Z 17012G19KT 35/10 A3002 RMK A01 T03480095  RH  022%=      5-min Rain = 0
KSP1 112050Z 16009G15KT 35/09 A3002 RMK A01 T03470094  RH  022%=      5-min Rain = 0
KSP1 112055Z 19014G20KT 35/10 A3001 RMK A01 T03510095  RH  022%=      5-min Rain = 0
KSP1 112100Z 17010KT 35/10 A3001 RMK A01 T03500098  RH  022%=      5-min Rain = 0
KSP1 112105Z 18014G21KT 35/10 A3001 RMK A01 T03490098  RH  022%=      5-min Rain = 0
KSP1 112110Z 16010G15KT 35/10 A3001 RMK A01 T03490096  RH  022%=      5-min Rain = 0
KSP1 112115Z 16012G22KT 35/09 A3001 RMK A01 T03470086  RH  021%=      5-min Rain = 0
KSP1 112120Z 17010KT 35/10 A30 RMK A01 T03480095  RH  022%=      5-min Rain = 0
KSP1 112125Z 19007G14KT 35/09 A30 RMK A01 T03510094  RH  022%=      5-min Rain = 0
KSP1 112130Z 17010G19KT 35/10 A2999 RMK A01 T03540095  RH  021%=      5-min Rain = 0
KSP1 112135Z 21012G18KT 35/10 A2999 RMK A01 T03520095  RH  022%=      5-min Rain = 0
KSP1 112140Z 18011G18KT 35/09 A2999 RMK A01 T03450094  RH  022%=      5-min Rain = 0
KSP1 112145Z 15008KT 35/10 A2999 RMK A01 T03490096  RH  022%=      5-min Rain = 0
KSP1 112150Z 18009G16KT 35/09 A2999 RMK A01 T03520089  RH  021%=      5-min Rain = 0
KSP1 112155Z 17008G16KT 35/09 A2999 RMK A01 T03500091  RH  021%=      5-min Rain = 0
KSP1 112200Z 17011KT 35/09 A2998 RMK A01 T03520091  RH  021%=      5-min Rain = 0
KSP1 112205Z 20010KT 35/09 A2998 RMK A01 T03520093  RH  021%=      5-min Rain = 0
KSP1 112210Z 19011KT 35/09 A2998 RMK A01 T03520094  RH  021%=      5-min Rain = 0
KSP1 112215Z 19010G16KT 35/09 A2998 RMK A01 T03490094  RH  022%=      5-min Rain = 0
KSP1 112220Z 18008G13KT 35/09 A2998 RMK A01 T03460092  RH  022%=      5-min Rain = 0
KSP1 112225Z 18009KT 35/10 A2998 RMK A01 T03490095  RH  022%=      5-min Rain = 0
KSP1 112230Z 19010KT 35/10 A2997 RMK A01 T03490096  RH  022%=      5-min Rain = 0
KSP1 112235Z 18009KT 35/10 A2997 RMK A01 T03510101  RH  022%=      5-min Rain = 0
KSP1 112240Z 15008KT 35/11 A2998 RMK A01 T03540108  RH  023%=      5-min Rain = 0
KSP1 112245Z 17008G14KT 35/10 A2997 RMK A01 T03500102  RH  023%=      5-min Rain = 0
KSP1 112250Z 19010KT 35/09 A2997 RMK A01 T03500094  RH  022%=      5-min Rain = 0
KSP1 112255Z 18009KT 35/10 A2997 RMK A01 T03480098  RH  023%=      5-min Rain = 0
KSP1 112300Z 17009G14KT 34/11 A2997 RMK A01 T03440105  RH  024%=      5-min Rain = 0
KSP1 112305Z 17010KT 34/11 A2997 RMK A01 T03410107  RH  025%=      5-min Rain = 0
KSP1 112310Z 16008G15KT 34/11 A2997 RMK A01 T03430109  RH  025%=      5-min Rain = 0
KSP1 112315Z 19010G27KT 34/11 A2997 RMK A01 T03420106  RH  025%=      5-min Rain = 0
KSP1 112320Z 17010KT 34/11 A2997 RMK A01 T03410105  RH  024%=      5-min Rain = 0
KSP1 112325Z 15009KT 34/11 A2997 RMK A01 T03390105  RH  025%=      5-min Rain = 0
KSP1 112330Z 15008KT 34/11 A2997 RMK A01 T03380109  RH  026%=      5-min Rain = 0
KSP1 112335Z 14007G12KT 34/11 A2997 RMK A01 T03370112  RH  026%=      5-min Rain = 0
KSP1 112340Z 16010KT 34/11 A2997 RMK A01 T03410108  RH  025%=      5-min Rain = 0
KSP1 112345Z 16008G15KT 34/11 A2997 RMK A01 T03390109  RH  025%=      5-min Rain = 0
KSP1 112350Z 16010KT 34/11 A2997 RMK A01 T03370106  RH  025%=      5-min Rain = 0
KSP1 112355Z 15010KT 34/11 A2997 RMK A01 T03370111  RH  026%=      5-min Rain = 0
KSP1 120000Z 15010KT 33/12 A2997 RMK A01 T03340115  RH  027%=      5-min Rain = 0
KSP1 120005Z 14009KT 33/12 A2997 RMK A01 T03320116  RH  028%=      5-min Rain = 0
KSP1 120010Z 15008KT 33/12 A2997 RMK A01 T03310118  RH  028%=      5-min Rain = 0
KSP1 120015Z 15009KT 33/12 A2997 RMK A01 T03300118  RH  029%=      5-min Rain = 0
KSP1 120020Z 16008KT 33/12 A2997 RMK A01 T03300119  RH  029%=      5-min Rain = 0
KSP1 120025Z 15008KT 33/12 A2997 RMK A01 T03300119  RH  029%=      5-min Rain = 0
KSP1 120030Z 15007G12KT 33/12 A2997 RMK A01 T03300120  RH  029%=      5-min Rain = 0
KSP1 120035Z 15009KT 33/12 A2997 RMK A01 T03300119  RH  029%=      5-min Rain = 0
KSP1 120040Z 15007KT 33/12 A2997 RMK A01 T03290121  RH  029%=      5-min Rain = 0
KSP1 120045Z 15008KT 33/12 A2997 RMK A01 T03280122  RH  030%=      5-min Rain = 0
KSP1 120050Z 15007KT 33/12 A2997 RMK A01 T03280121  RH  030%=      5-min Rain = 0
KSP1 120055Z 15008KT 33/12 A2998 RMK A01 T03280119  RH  029%=      5-min Rain = 0
KSP1 120100Z 15007KT 33/12 A2998 RMK A01 T03280120  RH  029%=      5-min Rain = 0
KSP1 120105Z 15006KT 33/12 A2998 RMK A01 T03260122  RH  030%=      5-min Rain = 0
KSP1 120110Z 15006KT 33/12 A2998 RMK A01 T03250123  RH  030%=      5-min Rain = 0
KSP1 120115Z 15006KT 32/12 A2998 RMK A01 T03240121  RH  030%=      5-min Rain = 0
KSP1 120120Z 15006KT 32/12 A2998 RMK A01 T03230120  RH  030%=      5-min Rain = 0
KSP1 120125Z 15005KT 32/12 A2998 RMK A01 T03230119  RH  030%=      5-min Rain = 0
KSP1 120130Z 15006KT 32/12 A2998 RMK A01 T03220119  RH  030%=      5-min Rain = 0
KSP1 120135Z 14005KT 32/12 A2998 RMK A01 T03200121  RH  031%=      5-min Rain = 0
KSP1 120140Z 14006KT 32/12 A2998 RMK A01 T03180122  RH  031%=      5-min Rain = 0
KSP1 120145Z 15008KT 32/12 A2998 RMK A01 T03160123  RH  032%=      5-min Rain = 0
KSP1 120150Z 12007KT 32/12 A2998 RMK A01 T03170123  RH  032%=      5-min Rain = 0
KSP1 120155Z 12006KT 32/13 A2999 RMK A01 T03170126  RH  032%=      5-min Rain = 0
KSP1 120200Z 12006KT 32/13 A2999 RMK A01 T03150128  RH  033%=      5-min Rain = 0
KSP1 120205Z 12005KT 31/13 A2999 RMK A01 T03140128  RH  033%=      5-min Rain = 0
KSP1 120210Z 13005KT 31/13 A2999 RMK A01 T03130129  RH  034%=      5-min Rain = 0
KSP1 120215Z 13004KT 31/13 A2999 RMK A01 T03110129  RH  034%=      5-min Rain = 0
KSP1 120220Z 13005KT 31/13 A2999 RMK A01 T03090130  RH  035%=      5-min Rain = 0
KSP1 120225Z 13004KT 31/13 A2999 RMK A01 T03070131  RH  035%=      5-min Rain = 0
KSP1 120230Z 13004KT 31/13 A30 RMK A01 T03060131  RH  036%=      5-min Rain = 0
KSP1 120235Z 13005KT 31/13 A30 RMK A01 T03050132  RH  036%=      5-min Rain = 0
KSP1 120240Z 13004KT 31/13 A30 RMK A01 T03050131  RH  036%=      5-min Rain = 0
KSP1 120245Z 14005KT 30/13 A30 RMK A01 T03030132  RH  037%=      5-min Rain = 0
KSP1 120250Z 14005KT 30/13 A30 RMK A01 T03000134  RH  038%=      5-min Rain = 0
KSP1 120255Z 13004KT 30/14 A30 RMK A01 T02980135  RH  039%=      5-min Rain = 0
KSP1 120300Z 14004KT 30/14 A3001 RMK A01 T02960135  RH  039%=      5-min Rain = 0
KSP1 120305Z 14004KT 30/14 A3001 RMK A01 T02950135  RH  039%=      5-min Rain = 0
KSP1 120310Z 13004KT 29/14 A3001 RMK A01 T02940135  RH  039%=      5-min Rain = 0
KSP1 120315Z 13004KT 29/13 A3002 RMK A01 T02940134  RH  039%=      5-min Rain = 0
KSP1 120320Z 14004KT 29/13 A3002 RMK A01 T02940134  RH  039%=      5-min Rain = 0
KSP1 120325Z 14004KT 29/13 A3002 RMK A01 T02940133  RH  039%=      5-min Rain = 0
KSP1 120330Z 14004KT 29/14 A3002 RMK A01 T02930135  RH  039%=      5-min Rain = 0
KSP1 120335Z 14004KT 29/14 A3002 RMK A01 T02920135  RH  040%=      5-min Rain = 0
KSP1 120340Z 14004KT 29/14 A3003 RMK A01 T02910136  RH  040%=      5-min Rain = 0
KSP1 120345Z 14004KT 29/14 A3003 RMK A01 T02900137  RH  041%=      5-min Rain = 0
KSP1 120350Z 14003KT 29/14 A3003 RMK A01 T02890136  RH  041%=      5-min Rain = 0
KSP1 120355Z 14004KT 29/14 A3003 RMK A01 T02890136  RH  041%=      5-min Rain = 0
KSP1 120400Z 14004KT 29/14 A3003 RMK A01 T02880136  RH  041%=      5-min Rain = 0
KSP1 120405Z 14004KT 29/14 A3003 RMK A01 T02880135  RH  041%=      5-min Rain = 0
KSP1 120410Z 14005KT 29/13 A3003 RMK A01 T02870134  RH  041%=      5-min Rain = 0
KSP1 120415Z 14004KT 29/13 A3003 RMK A01 T02870133  RH  040%=      5-min Rain = 0
KSP1 120420Z 14004KT 29/13 A3003 RMK A01 T02870132  RH  040%=      5-min Rain = 0
KSP1 120425Z 14004KT 29/13 A3003 RMK A01 T02880131  RH  040%=      5-min Rain = 0
KSP1 120430Z 13004KT 29/13 A3003 RMK A01 T02880129  RH  039%=      5-min Rain = 0
KSP1 120435Z 13004KT 29/13 A3003 RMK A01 T02880129  RH  039%=      5-min Rain = 0
KSP1 120440Z 12006KT 29/13 A3004 RMK A01 T02880128  RH  039%=      5-min Rain = 0
KSP1 120445Z 12007G12KT 29/13 A3004 RMK A01 T02910126  RH  038%=      5-min Rain = 0
KSP1 120450Z 13007KT 29/13 A3004 RMK A01 T02920130  RH  038%=      5-min Rain = 0
KSP1 120455Z 13007G12KT 29/13 A3004 RMK A01 T02910134  RH  040%=      5-min Rain = 0
KSP1 120500Z 13006G11KT 29/14 A3004 RMK A01 T02900137  RH  041%=      5-min Rain = 0

Page generated in 0.009 seconds.